New Orleans, Louisiana
Traffic Map
Current Weather Conditions
New Orleans, Louisiana
Overcast
Overcast
74°
Feels Like: 74°
Wind Chill: 74° Ceiling: 2500
Heat Index: 74° Visibility: 10mi
Dew Point: 66° Wind: 12mph
Humidity: 76% Direction: 100° (E)
Pressure: 30.01in Gusts: 0mph
Raw Report DataKNEW 202053Z 10010KT 10SM BKN025 OVC034 23/19 A3001 RMK AO2 SLP154 T02330189 58015
Traffic Incident Summary
Active as of:
Severity:
Category:
InformationThere was an issue retrieving the traffic information for this location. Please try a different location or try again shortly.
Advertisements
Track Severe Weather on mobile